Terminal Aerodrome Forecast
Issued by NWS

Home | Current Version | Previous Version | Text Only | Print | Product List | Glossary On
Versions: 1 2 3 4 5 6 7 8 9 10 11 12 13 14 15 16 17 18 19 20 21 22 23 24
000
FTUS44 KLZK 200800 AAA
TAFBPK
TAF AMD
KBPK 200833Z 2009/2106 00000KT 4SM BR SCT005
      TEMPO 2010/2013 2SM BR BKN005
     FM201400 21005KT P6SM SCT040
     FM210000 VRB03KT P6SM SKC=

USA.gov is the U.S. government's official web portal to all federal, state and local government web resources and services.